createdAt,value
2022-09-24T00:00:19.345Z,75.93
2022-09-24T00:02:20.680Z,75.90
2022-09-24T00:04:24.378Z,75.78
2022-09-24T00:06:25.658Z,76.05
2022-09-24T00:08:26.988Z,75.89
2022-09-24T00:10:28.287Z,76.20
2022-09-24T00:12:29.608Z,75.84
2022-09-24T00:14:30.867Z,76.01
2022-09-24T00:16:33.825Z,76.34
2022-09-24T00:18:35.356Z,76.16
2022-09-24T00:20:36.675Z,76.16
2022-09-24T00:22:38.108Z,76.13
2022-09-24T00:24:58.298Z,76.30
2022-09-24T00:26:59.618Z,76.09
2022-09-24T00:29:00.933Z,76.34
2022-09-24T00:31:02.283Z,76.34
2022-09-24T00:33:03.591Z,76.24
2022-09-24T00:35:04.870Z,76.15
2022-09-24T00:37:06.187Z,76.12
2022-09-24T00:39:07.478Z,76.26
2022-09-24T00:41:08.784Z,76.27
2022-09-24T00:43:10.055Z,76.54
2022-09-24T00:45:11.374Z,76.39
2022-09-24T00:47:12.650Z,76.38
2022-09-24T00:49:13.906Z,76.51
2022-09-24T00:51:15.182Z,76.62
2022-09-24T00:53:16.508Z,76.77
2022-09-24T00:55:19.799Z,76.50
2022-09-24T00:57:21.116Z,76.72
2022-09-24T00:59:23.933Z,76.65
2022-09-24T01:01:25.355Z,76.50
2022-09-24T01:03:26.748Z,76.68
2022-09-24T01:05:28.069Z,76.38
2022-09-24T01:07:29.343Z,76.78
2022-09-24T01:09:30.655Z,76.53
2022-09-24T01:11:32.007Z,76.10
2022-09-24T01:13:33.316Z,76.28
2022-09-24T01:15:34.584Z,76.13
2022-09-24T01:17:35.875Z,76.09
2022-09-24T01:19:37.551Z,76.38
2022-09-24T01:21:38.887Z,76.35
2022-09-24T01:23:42.753Z,76.41
2022-09-24T01:25:46.262Z,76.31
2022-09-24T01:27:47.544Z,76.44
2022-09-24T01:29:50.056Z,76.61
2022-09-24T01:31:51.381Z,76.54
2022-09-24T01:33:55.819Z,76.53
2022-09-24T01:35:57.074Z,76.50
2022-09-24T01:37:58.334Z,76.43
2022-09-24T01:39:59.586Z,76.64
2022-09-24T01:42:00.879Z,76.69
2022-09-24T01:44:05.127Z,76.75
2022-09-24T01:46:06.946Z,76.75
2022-09-24T01:48:08.286Z,77.05
2022-09-24T01:50:09.614Z,76.73
2022-09-24T01:52:10.882Z,77.03
2022-09-24T01:54:12.239Z,76.79
2022-09-24T01:56:13.519Z,76.94
2022-09-24T01:58:14.827Z,76.92
2022-09-24T02:00:16.213Z,76.90
2022-09-24T02:02:18.015Z,77.04
2022-09-24T02:04:19.355Z,76.88
2022-09-24T02:06:20.627Z,77.29
2022-09-24T02:08:22.245Z,77.29
2022-09-24T02:10:23.532Z,77.10
2022-09-24T02:12:29.630Z,77.10
2022-09-24T02:14:30.972Z,77.13
2022-09-24T02:16:32.272Z,77.17
2022-09-24T02:18:33.587Z,77.18
2022-09-24T02:20:34.907Z,77.12
2022-09-24T02:22:36.368Z,77.46
2022-09-24T02:24:37.655Z,77.48
2022-09-24T02:26:38.984Z,77.12
2022-09-24T02:28:41.955Z,77.38
2022-09-24T02:30:44.013Z,77.48
2022-09-24T02:32:45.286Z,77.24
2022-09-24T02:34:47.205Z,77.27
2022-09-24T02:36:48.545Z,77.79
2022-09-24T02:38:49.823Z,77.58
2022-09-24T02:40:51.279Z,77.45
2022-09-24T02:42:52.677Z,77.38
2022-09-24T02:44:57.375Z,77.29
2022-09-24T02:46:58.817Z,77.64
2022-09-24T02:49:00.188Z,77.61
2022-09-24T02:51:04.154Z,77.47
2022-09-24T02:53:05.471Z,77.70
2022-09-24T02:55:06.799Z,77.36
2022-09-24T02:57:08.081Z,77.24
2022-09-24T02:59:09.396Z,77.57
2022-09-24T03:01:10.678Z,77.68
2022-09-24T03:03:12.003Z,77.36
2022-09-24T03:05:13.366Z,77.66
2022-09-24T03:07:14.783Z,77.80
2022-09-24T03:09:16.128Z,77.59
2022-09-24T03:11:18.850Z,77.86
2022-09-24T03:13:20.751Z,77.73
2022-09-24T03:15:22.029Z,77.86
2022-09-24T03:17:23.304Z,77.78
2022-09-24T03:19:24.588Z,77.68
2022-09-24T03:21:25.924Z,77.76
2022-09-24T03:23:27.199Z,77.61
2022-09-24T03:25:28.524Z,78.03
2022-09-24T03:27:29.820Z,77.83
2022-09-24T03:29:49.877Z,77.89
2022-09-24T03:31:51.243Z,78.02
2022-09-24T03:33:53.000Z,78.04
2022-09-24T03:35:54.267Z,78.07
2022-09-24T03:37:55.535Z,77.93
2022-09-24T03:39:56.816Z,77.70
2022-09-24T03:41:58.139Z,78.02
2022-09-24T03:43:59.436Z,78.09
2022-09-24T03:46:00.816Z,77.79
2022-09-24T03:48:02.093Z,78.04
2022-09-24T03:50:03.418Z,78.13
2022-09-24T03:52:04.709Z,77.77
2022-09-24T03:54:06.091Z,78.15
2022-09-24T03:58:08.732Z,77.92
2022-09-24T04:00:10.022Z,78.04
2022-09-24T04:02:11.339Z,77.70
2022-09-24T04:04:15.607Z,77.96
2022-09-24T04:06:20.701Z,78.06
2022-09-24T04:08:25.991Z,77.80
2022-09-24T04:10:28.116Z,78.07
2022-09-24T04:12:29.665Z,77.86
2022-09-24T04:14:30.984Z,77.98
2022-09-24T04:16:32.378Z,77.82
2022-09-24T04:18:38.304Z,77.63
2022-09-24T04:20:40.589Z,77.94
2022-09-24T04:22:41.863Z,77.62
2022-09-24T04:24:43.174Z,77.82
2022-09-24T04:26:44.455Z,77.76
2022-09-24T04:28:45.751Z,77.78
2022-09-24T04:30:47.060Z,77.68
2022-09-24T04:32:49.046Z,77.51
2022-09-24T04:34:50.326Z,77.62
2022-09-24T04:36:52.147Z,77.47
2022-09-24T04:38:53.431Z,77.63
2022-09-24T04:40:54.765Z,77.82
2022-09-24T04:42:56.144Z,77.56
2022-09-24T04:44:57.419Z,77.83
2022-09-24T04:47:02.276Z,77.97
2022-09-24T04:49:03.623Z,78.01
2022-09-24T04:51:05.826Z,77.58
2022-09-24T04:53:07.625Z,77.73
2022-09-24T04:55:08.910Z,77.91
2022-09-24T04:57:10.184Z,77.98
2022-09-24T04:59:11.566Z,78.16
2022-09-24T05:01:13.449Z,77.98
2022-09-24T05:03:15.520Z,78.26
2022-09-24T05:05:16.854Z,77.97
2022-09-24T05:07:18.148Z,78.17
2022-09-24T05:09:19.418Z,77.63
2022-09-24T05:11:20.679Z,77.96
2022-09-24T05:13:21.962Z,77.97
2022-09-24T05:15:23.445Z,78.26
2022-09-24T05:17:24.729Z,78.21
2022-09-24T05:19:26.025Z,78.18
2022-09-24T05:21:27.523Z,77.95
2022-09-24T05:23:28.815Z,78.14
2022-09-24T05:25:30.093Z,77.97
2022-09-24T05:27:31.374Z,78.10
2022-09-24T05:29:32.671Z,77.98
2022-09-24T05:31:34.013Z,78.33
2022-09-24T05:33:36.159Z,78.05
2022-09-24T05:35:37.482Z,78.23
2022-09-24T05:37:39.224Z,77.98
2022-09-24T05:39:40.494Z,77.79
2022-09-24T05:41:41.795Z,77.91
2022-09-24T05:43:43.074Z,77.69
2022-09-24T05:45:44.580Z,77.48
2022-09-24T05:47:45.906Z,77.62
2022-09-24T05:49:47.203Z,77.39
2022-09-24T05:51:48.838Z,77.60
2022-09-24T05:53:50.484Z,77.46
2022-09-24T05:55:51.799Z,77.77
2022-09-24T05:57:53.246Z,77.81
2022-09-24T05:59:54.623Z,77.76
2022-09-24T06:01:55.977Z,77.64
2022-09-24T06:03:57.275Z,77.68
2022-09-24T06:06:02.325Z,77.83
2022-09-24T06:08:03.665Z,77.83
2022-09-24T06:10:05.381Z,78.19
2022-09-24T06:12:07.134Z,77.87
2022-09-24T06:14:09.107Z,78.24
2022-09-24T06:16:10.665Z,78.20
2022-09-24T06:18:12.190Z,78.06
2022-09-24T06:20:13.895Z,78.34
2022-09-24T06:22:15.202Z,78.23
2022-09-24T06:24:16.474Z,78.35
2022-09-24T06:26:18.948Z,77.63
2022-09-24T06:28:20.223Z,77.61
2022-09-24T06:30:21.474Z,77.87
2022-09-24T06:32:22.751Z,77.18
2022-09-24T06:34:24.107Z,77.47
2022-09-24T06:36:25.365Z,77.38
2022-09-24T06:38:26.677Z,77.68
2022-09-24T06:40:32.533Z,77.72
2022-09-24T06:42:38.190Z,77.93
2022-09-24T06:44:39.512Z,77.86
2022-09-24T06:46:40.839Z,78.14
2022-09-24T06:48:42.653Z,78.06
2022-09-24T06:50:43.978Z,78.35
2022-09-24T06:52:45.271Z,77.88
2022-09-24T06:54:46.591Z,78.12
2022-09-24T06:56:47.864Z,78.38
2022-09-24T06:58:49.183Z,78.56
2022-09-24T07:00:50.491Z,78.50
2022-09-24T07:02:51.844Z,78.46
2022-09-24T07:04:53.343Z,77.84
2022-09-24T07:07:13.499Z,78.48
2022-09-24T07:09:14.827Z,77.72
2022-09-24T07:11:16.103Z,77.77
2022-09-24T07:13:17.411Z,77.57
2022-09-24T07:15:18.682Z,76.80
2022-09-24T07:17:19.954Z,77.30
2022-09-24T07:19:21.262Z,76.89
2022-09-24T07:21:22.627Z,77.25
2022-09-24T07:23:23.926Z,76.75
2022-09-24T07:25:25.231Z,76.93
2022-09-24T07:27:26.530Z,76.74
2022-09-24T07:29:27.818Z,76.63
2022-09-24T07:31:29.204Z,76.62
2022-09-24T07:33:30.555Z,76.87
2022-09-24T07:35:31.835Z,76.69
2022-09-24T07:37:33.254Z,76.43
2022-09-24T07:39:34.563Z,76.83
2022-09-24T07:41:41.355Z,76.77
2022-09-24T07:43:43.866Z,76.95
2022-09-24T07:45:45.290Z,76.84
2022-09-24T07:47:46.564Z,76.90
2022-09-24T07:49:47.996Z,76.82
2022-09-24T07:51:49.647Z,77.11
2022-09-24T07:53:50.970Z,76.85
2022-09-24T07:55:52.702Z,76.91
2022-09-24T07:57:54.032Z,76.70
2022-09-24T07:59:55.349Z,76.95
2022-09-24T08:01:57.505Z,76.83
2022-09-24T08:03:59.595Z,76.86
2022-09-24T08:06:01.794Z,76.65
2022-09-24T08:08:03.078Z,76.61
2022-09-24T08:10:04.356Z,76.50
2022-09-24T08:12:05.647Z,76.38
2022-09-24T08:14:07.243Z,76.52
2022-09-24T08:16:08.629Z,76.26
2022-09-24T08:18:09.977Z,76.36
2022-09-24T08:20:11.975Z,76.00
2022-09-24T08:22:14.209Z,75.99
2022-09-24T08:24:15.956Z,75.98
2022-09-24T08:26:17.245Z,75.75
2022-09-24T08:28:19.737Z,76.18
2022-09-24T08:30:21.900Z,64.90
2022-09-24T08:32:23.396Z,65.83
2022-09-24T08:34:25.132Z,61.39
2022-09-24T08:36:28.020Z,63.39
2022-09-24T08:38:29.320Z,66.25
2022-09-24T08:40:30.840Z,66.50
2022-09-24T08:42:33.114Z,67.06
2022-09-24T08:44:53.327Z,67.90
2022-09-24T08:47:13.127Z,68.10
2022-09-24T08:49:16.302Z,68.45
2022-09-24T08:51:20.771Z,68.56
2022-09-24T08:53:22.078Z,68.96
2022-09-24T08:55:23.411Z,68.57
2022-09-24T08:57:24.710Z,68.78
2022-09-24T08:59:26.190Z,68.33
2022-09-24T09:01:27.559Z,68.51
2022-09-24T09:03:29.156Z,68.80
2022-09-24T09:05:30.419Z,68.93
2022-09-24T09:07:31.884Z,69.11
2022-09-24T09:09:33.148Z,69.54
2022-09-24T09:11:34.503Z,69.45
2022-09-24T09:13:35.808Z,69.83
2022-09-24T09:15:37.168Z,69.48
2022-09-24T09:17:42.168Z,69.54
2022-09-24T09:19:43.427Z,69.77
2022-09-24T09:21:45.957Z,69.74
2022-09-24T09:23:47.226Z,70.13
2022-09-24T09:25:51.905Z,70.52
2022-09-24T09:27:53.238Z,70.67
2022-09-24T09:29:54.572Z,71.23
2022-09-24T09:31:56.715Z,70.96
2022-09-24T09:34:00.703Z,71.23
2022-09-24T09:36:01.976Z,71.36
2022-09-24T09:38:03.248Z,71.63
2022-09-24T09:40:10.058Z,71.60
2022-09-24T09:42:11.459Z,71.74
2022-09-24T09:44:12.739Z,71.76
2022-09-24T09:46:14.327Z,71.89
2022-09-24T09:48:16.925Z,71.61
2022-09-24T09:50:18.260Z,72.04
2022-09-24T09:52:20.607Z,72.10
2022-09-24T09:54:21.888Z,72.44
2022-09-24T09:56:23.279Z,72.40
2022-09-24T09:58:24.763Z,72.39
2022-09-24T10:00:26.737Z,72.51
2022-09-24T10:02:28.179Z,72.87
2022-09-24T10:04:29.666Z,72.67
2022-09-24T10:06:31.864Z,72.78
2022-09-24T10:08:33.144Z,72.72
2022-09-24T10:10:34.424Z,72.86
2022-09-24T10:12:35.694Z,72.93
2022-09-24T10:14:37.014Z,73.44
2022-09-24T10:16:38.340Z,72.78
2022-09-24T10:18:39.831Z,73.16
2022-09-24T10:20:41.132Z,72.73
2022-09-24T10:22:42.417Z,73.02
2022-09-24T10:24:43.685Z,72.86
2022-09-24T10:26:45.731Z,72.91
2022-09-24T10:29:05.690Z,72.97
2022-09-24T10:31:06.986Z,72.92
2022-09-24T10:33:08.867Z,73.15
2022-09-24T10:35:10.151Z,73.11
2022-09-24T10:37:11.426Z,73.16
2022-09-24T10:39:12.800Z,73.38
2022-09-24T10:41:14.175Z,73.07
2022-09-24T10:43:15.502Z,73.30
2022-09-24T10:45:16.781Z,73.47
2022-09-24T10:47:18.121Z,73.21
2022-09-24T10:49:19.426Z,73.39
2022-09-24T10:51:24.143Z,73.27
2022-09-24T10:53:27.907Z,73.40
2022-09-24T10:55:29.174Z,73.43
2022-09-24T10:57:31.239Z,73.53
2022-09-24T10:59:32.579Z,73.74
2022-09-24T11:01:34.234Z,73.77
2022-09-24T11:03:36.353Z,73.63
2022-09-24T11:05:37.630Z,73.74
2022-09-24T11:07:38.962Z,73.64
2022-09-24T11:09:40.274Z,73.77
2022-09-24T11:11:41.596Z,73.92
2022-09-24T11:13:42.942Z,73.60
2022-09-24T11:15:44.262Z,73.65
2022-09-24T11:17:45.992Z,73.51
2022-09-24T11:19:47.272Z,73.19
2022-09-24T11:21:48.742Z,73.28
2022-09-24T11:23:50.042Z,73.46
2022-09-24T11:25:51.731Z,73.38
2022-09-24T11:27:52.995Z,73.33
2022-09-24T11:29:54.285Z,73.26
2022-09-24T11:31:55.589Z,73.32
2022-09-24T11:33:56.868Z,73.28
2022-09-24T11:35:58.179Z,72.89
2022-09-24T11:38:01.049Z,72.55
2022-09-24T11:40:03.013Z,72.37
2022-09-24T11:42:04.275Z,71.77
2022-09-24T11:44:05.837Z,71.86
2022-09-24T11:46:07.199Z,71.90
2022-09-24T11:48:08.538Z,71.61
2022-09-24T11:50:11.156Z,71.69
2022-09-24T11:52:12.625Z,71.63
2022-09-24T11:54:13.923Z,71.82
2022-09-24T11:56:15.269Z,71.52
2022-09-24T11:58:16.900Z,71.49
2022-09-24T12:00:18.252Z,71.38
2022-09-24T12:02:19.634Z,71.26
2022-09-24T12:04:21.139Z,71.31
2022-09-24T12:06:22.424Z,71.69
2022-09-24T12:08:27.675Z,71.03
2022-09-24T12:10:29.854Z,71.38
2022-09-24T12:12:31.279Z,71.50
2022-09-24T12:14:32.981Z,71.56
2022-09-24T12:16:34.314Z,71.15
2022-09-24T12:18:35.647Z,71.08
2022-09-24T12:20:36.919Z,71.30
2022-09-24T12:22:38.198Z,71.10
2022-09-24T12:24:39.467Z,71.24
2022-09-24T12:26:40.760Z,71.16
2022-09-24T12:29:00.528Z,71.12
2022-09-24T12:31:20.450Z,71.13
2022-09-24T12:33:21.778Z,71.46
2022-09-24T12:35:23.727Z,71.02
2022-09-24T12:37:25.230Z,71.27
2022-09-24T12:39:26.792Z,71.53
2022-09-24T12:41:28.114Z,71.28
2022-09-24T12:43:29.872Z,71.07
2022-09-24T12:45:31.195Z,71.13
2022-09-24T12:47:33.277Z,71.36
2022-09-24T12:49:34.583Z,71.25
2022-09-24T12:51:35.913Z,70.86
2022-09-24T12:53:37.333Z,71.32
2022-09-24T12:55:39.096Z,71.30
2022-09-24T12:57:40.375Z,71.31
2022-09-24T12:59:41.696Z,71.14
2022-09-24T13:01:43.137Z,71.28
2022-09-24T13:03:47.318Z,70.94
2022-09-24T13:05:48.951Z,71.15
2022-09-24T13:07:50.255Z,71.09
2022-09-24T13:09:51.691Z,71.06
2022-09-24T13:11:53.226Z,71.35
2022-09-24T13:13:54.531Z,71.81
2022-09-24T13:15:55.820Z,72.18
2022-09-24T13:17:57.920Z,72.10
2022-09-24T13:19:59.255Z,71.78
2022-09-24T13:22:00.604Z,71.96
2022-09-24T13:24:01.904Z,72.14
2022-09-24T13:26:04.914Z,72.62
2022-09-24T13:28:06.268Z,72.85
2022-09-24T13:30:07.595Z,72.90
2022-09-24T13:32:08.867Z,72.89
2022-09-24T13:34:12.524Z,73.23
2022-09-24T13:36:13.954Z,73.31
2022-09-24T13:38:15.252Z,73.09
2022-09-24T13:40:16.597Z,73.21
2022-09-24T13:42:18.000Z,73.29
2022-09-24T13:44:19.298Z,73.46
2022-09-24T13:46:20.897Z,73.17
2022-09-24T13:48:22.305Z,73.09
2022-09-24T13:50:23.745Z,72.62
2022-09-24T13:52:25.031Z,72.29
2022-09-24T13:54:26.354Z,72.34
2022-09-24T13:56:27.631Z,71.73
2022-09-24T13:58:28.988Z,70.59
2022-09-24T14:00:31.333Z,68.15
2022-09-24T14:02:32.689Z,67.30
2022-09-24T14:04:33.983Z,67.33
2022-09-24T14:06:35.304Z,67.63
2022-09-24T14:08:36.554Z,67.49
2022-09-24T14:10:38.014Z,67.75
2022-09-24T14:12:39.314Z,67.46
2022-09-24T14:14:40.692Z,67.72
2022-09-24T14:16:41.980Z,68.30
2022-09-24T14:18:43.252Z,66.61
2022-09-24T14:20:44.592Z,66.01
2022-09-24T14:22:46.073Z,67.72
2022-09-24T14:24:47.341Z,69.19
2022-09-24T14:26:48.681Z,70.42
2022-09-24T14:28:49.954Z,70.68
2022-09-24T14:30:51.342Z,71.04
2022-09-24T14:32:52.714Z,70.52
2022-09-24T14:34:54.011Z,70.52
2022-09-24T14:36:55.339Z,70.42
2022-09-24T14:38:56.679Z,70.44
2022-09-24T14:40:57.998Z,70.50
2022-09-24T14:42:59.374Z,70.94
2022-09-24T14:45:00.702Z,70.84
2022-09-24T14:47:02.521Z,70.89
2022-09-24T14:49:03.805Z,71.45
2022-09-24T14:51:06.233Z,70.82
2022-09-24T14:53:07.545Z,70.84
2022-09-24T14:55:09.086Z,70.84
2022-09-24T14:57:11.463Z,71.21
2022-09-24T14:59:12.773Z,71.13
2022-09-24T15:01:14.199Z,71.24
2022-09-24T15:03:15.516Z,71.41
2022-09-24T15:05:16.950Z,71.28
2022-09-24T15:07:18.710Z,71.81
2022-09-24T15:09:19.991Z,71.63
2022-09-24T15:11:21.427Z,71.81
2022-09-24T15:13:22.719Z,72.20
2022-09-24T15:15:25.060Z,72.23
2022-09-24T15:17:27.215Z,72.05
2022-09-24T15:19:30.816Z,72.23
2022-09-24T15:21:32.098Z,72.31
2022-09-24T15:23:33.432Z,72.19
2022-09-24T15:25:34.790Z,72.25
2022-09-24T15:27:36.111Z,72.22
2022-09-24T15:29:37.426Z,72.29
2022-09-24T15:31:38.764Z,72.06
2022-09-24T15:33:40.069Z,72.19
2022-09-24T15:35:41.378Z,72.59
2022-09-24T15:37:42.699Z,72.47
2022-09-24T15:39:48.672Z,72.75
2022-09-24T15:41:49.927Z,72.57
2022-09-24T15:43:51.281Z,72.64
2022-09-24T15:45:52.573Z,72.81
2022-09-24T15:47:53.894Z,72.63
2022-09-24T15:49:55.180Z,72.84
2022-09-24T15:51:56.443Z,72.64
2022-09-24T15:53:57.724Z,71.27
2022-09-24T15:55:59.006Z,71.95
2022-09-24T15:58:01.952Z,71.78
2022-09-24T16:00:03.272Z,69.24
2022-09-24T16:02:05.372Z,67.82
2022-09-24T16:04:06.800Z,67.57
2022-09-24T16:06:08.245Z,67.24
2022-09-24T16:08:09.603Z,67.41
2022-09-24T16:10:10.892Z,67.98
2022-09-24T16:12:12.163Z,69.30
2022-09-24T16:14:13.463Z,70.04
2022-09-24T16:16:14.826Z,69.50
2022-09-24T16:18:16.347Z,67.90
2022-09-24T16:20:17.659Z,67.95
2022-09-24T16:22:20.657Z,71.14
2022-09-24T16:24:22.846Z,69.84
2022-09-24T16:26:24.478Z,70.16
2022-09-24T16:28:25.822Z,70.52
2022-09-24T16:30:27.113Z,70.98
2022-09-24T16:32:28.424Z,70.88
2022-09-24T16:34:29.735Z,70.95
2022-09-24T16:36:31.042Z,71.36
2022-09-24T16:38:32.330Z,71.10
2022-09-24T16:40:33.754Z,71.32
2022-09-24T16:42:35.152Z,71.20
2022-09-24T16:44:36.450Z,71.12
2022-09-24T16:46:37.790Z,71.65
2022-09-24T16:48:39.131Z,71.64
2022-09-24T16:50:40.696Z,71.10
2022-09-24T16:52:44.824Z,71.22
2022-09-24T16:54:46.094Z,71.21
2022-09-24T16:56:47.356Z,71.26
2022-09-24T16:58:48.733Z,71.11
2022-09-24T17:00:50.224Z,71.01
2022-09-24T17:02:51.625Z,71.58
2022-09-24T17:04:54.561Z,71.52
2022-09-24T17:06:55.838Z,71.63
2022-09-24T17:09:16.046Z,71.28
2022-09-24T17:11:17.328Z,71.23
2022-09-24T17:13:18.767Z,71.19
2022-09-24T17:15:20.727Z,71.52
2022-09-24T17:17:22.153Z,72.18
2022-09-24T17:19:23.531Z,72.07
2022-09-24T17:21:24.871Z,71.82
2022-09-24T17:23:26.173Z,71.14
2022-09-24T17:25:28.238Z,71.65
2022-09-24T17:27:29.560Z,71.57
2022-09-24T17:29:31.880Z,71.22
2022-09-24T17:31:33.996Z,71.38
2022-09-24T17:33:44.050Z,71.28
2022-09-24T17:35:46.780Z,71.57
2022-09-24T17:37:48.255Z,71.39
2022-09-24T17:39:49.526Z,71.29
2022-09-24T17:41:50.890Z,70.64
2022-09-24T17:43:52.204Z,70.55
2022-09-24T17:45:53.598Z,70.66
2022-09-24T17:47:58.140Z,70.73
2022-09-24T17:50:00.030Z,71.14
2022-09-24T17:52:02.276Z,71.31
2022-09-24T17:54:03.633Z,71.42
2022-09-24T17:56:05.032Z,71.20
2022-09-24T17:58:06.301Z,71.40
2022-09-24T18:00:07.655Z,71.06
2022-09-24T18:02:09.073Z,71.36
2022-09-24T18:04:10.437Z,70.88
2022-09-24T18:06:11.763Z,71.29
2022-09-24T18:08:13.050Z,71.07
2022-09-24T18:10:17.329Z,70.89
2022-09-24T18:12:18.660Z,71.36
2022-09-24T18:14:20.007Z,71.03
2022-09-24T18:16:21.363Z,70.98
2022-09-24T18:18:22.736Z,70.77
2022-09-24T18:20:24.308Z,69.55
2022-09-24T18:22:25.872Z,68.88
2022-09-24T18:24:27.217Z,68.88
2022-09-24T18:26:29.365Z,68.37
2022-09-24T18:28:30.690Z,69.57
2022-09-24T18:30:32.341Z,69.61
2022-09-24T18:32:34.680Z,69.63
2022-09-24T18:34:36.006Z,70.25
2022-09-24T18:36:37.279Z,70.49
2022-09-24T18:38:38.550Z,70.39
2022-09-24T18:40:39.912Z,70.60
2022-09-24T18:42:41.300Z,70.30
2022-09-24T18:44:42.645Z,70.28
2022-09-24T18:46:45.526Z,70.31
2022-09-24T18:48:47.271Z,70.20
2022-09-24T18:50:48.561Z,70.66
2022-09-24T18:52:50.460Z,70.98
2022-09-24T18:54:51.795Z,70.35
2022-09-24T18:56:53.525Z,70.59
2022-09-24T18:58:54.810Z,70.54
2022-09-24T19:00:56.312Z,70.58
2022-09-24T19:02:57.727Z,70.07
2022-09-24T19:04:59.076Z,70.21
2022-09-24T19:07:00.708Z,70.33
2022-09-24T19:09:02.050Z,69.90
2022-09-24T19:11:04.780Z,70.10
2022-09-24T19:13:06.559Z,70.21
2022-09-24T19:15:07.899Z,70.21
2022-09-24T19:17:09.206Z,70.03
2022-09-24T19:19:11.354Z,70.15
2022-09-24T19:21:15.845Z,70.12
2022-09-24T19:23:17.164Z,70.48
2022-09-24T19:25:18.448Z,70.27
2022-09-24T19:27:19.773Z,70.16
2022-09-24T19:29:21.085Z,70.22
2022-09-24T19:31:22.497Z,70.19
2022-09-24T19:33:23.907Z,71.09
2022-09-24T19:35:25.975Z,71.13
2022-09-24T19:37:29.108Z,70.99
2022-09-24T19:39:30.441Z,70.75
2022-09-24T19:41:31.728Z,70.24
2022-09-24T19:43:33.590Z,70.63
2022-09-24T19:45:37.247Z,70.17
2022-09-24T19:47:38.516Z,70.46
2022-09-24T19:49:39.790Z,70.21
2022-09-24T19:51:41.837Z,70.14
2022-09-24T19:53:43.107Z,70.29
2022-09-24T19:55:44.458Z,70.69
2022-09-24T19:57:45.738Z,70.34
2022-09-24T19:59:47.384Z,70.22
2022-09-24T20:01:48.747Z,70.29
2022-09-24T20:03:50.183Z,69.94
2022-09-24T20:05:51.500Z,70.00
2022-09-24T20:07:52.772Z,70.04
2022-09-24T20:09:54.216Z,69.96
2022-09-24T20:11:55.508Z,69.83
2022-09-24T20:13:57.119Z,70.38
2022-09-24T20:15:58.528Z,70.90
2022-09-24T20:17:59.846Z,70.94
2022-09-24T20:20:01.165Z,70.79
2022-09-24T20:22:02.473Z,70.02
2022-09-24T20:24:04.165Z,70.29
2022-09-24T20:26:24.311Z,69.86
2022-09-24T20:28:26.879Z,70.39
2022-09-24T20:30:28.168Z,70.16
2022-09-24T20:32:29.910Z,70.22
2022-09-24T20:34:34.178Z,70.25
2022-09-24T20:36:35.579Z,70.59
2022-09-24T20:38:38.048Z,70.88
2022-09-24T20:40:39.384Z,71.12
2022-09-24T20:42:40.727Z,70.93
2022-09-24T20:44:42.003Z,70.69
2022-09-24T20:46:43.387Z,70.47
2022-09-24T20:48:44.771Z,70.21
2022-09-24T20:50:46.187Z,70.59
2022-09-24T20:52:47.502Z,70.54
2022-09-24T20:54:48.782Z,70.66
2022-09-24T20:56:50.106Z,71.11
2022-09-24T20:58:51.439Z,71.00
2022-09-24T21:00:54.701Z,71.09
2022-09-24T21:02:56.284Z,70.84
2022-09-24T21:04:57.683Z,71.17
2022-09-24T21:06:59.075Z,71.07
2022-09-24T21:09:00.432Z,70.48
2022-09-24T21:11:01.756Z,70.92
2022-09-24T21:13:03.035Z,70.43
2022-09-24T21:15:04.309Z,70.58
2022-09-24T21:17:05.620Z,70.87
2022-09-24T21:19:07.989Z,71.66
2022-09-24T21:21:11.251Z,71.49
2022-09-24T21:23:13.570Z,72.25
2022-09-24T21:25:30.389Z,72.31
2022-09-24T21:27:36.138Z,72.29
2022-09-24T21:29:37.405Z,72.40
2022-09-24T21:31:38.732Z,72.25
2022-09-24T21:33:39.999Z,72.41
2022-09-24T21:35:41.272Z,72.71
2022-09-24T21:37:42.566Z,72.88
2022-09-24T21:39:45.209Z,72.96
2022-09-24T21:41:48.120Z,72.61
2022-09-24T21:43:49.471Z,73.12
2022-09-24T21:45:52.453Z,72.81
2022-09-24T21:47:54.966Z,73.09
2022-09-24T21:49:56.553Z,73.07
2022-09-24T21:51:57.968Z,73.20
2022-09-24T21:53:59.537Z,73.24
2022-09-24T21:56:00.806Z,73.45
2022-09-24T21:58:02.132Z,73.50
2022-09-24T22:00:10.109Z,73.47
2022-09-24T22:02:12.203Z,73.64
2022-09-24T22:04:13.779Z,73.87
2022-09-24T22:06:15.107Z,74.03
2022-09-24T22:08:19.963Z,73.71
2022-09-24T22:10:21.295Z,73.78
2022-09-24T22:12:22.590Z,73.60
2022-09-24T22:14:23.907Z,74.07
2022-09-24T22:16:25.252Z,74.17
2022-09-24T22:18:27.227Z,74.00
2022-09-24T22:20:28.567Z,74.12
2022-09-24T22:22:29.839Z,73.74
2022-09-24T22:24:31.124Z,74.13
2022-09-24T22:26:32.408Z,74.82
2022-09-24T22:28:33.707Z,74.17
2022-09-24T22:30:35.081Z,74.29
2022-09-24T22:32:36.451Z,74.37
2022-09-24T22:34:56.307Z,74.51
2022-09-24T22:36:57.618Z,74.31
2022-09-24T22:38:59.519Z,74.72
2022-09-24T22:41:00.899Z,74.86
2022-09-24T22:43:02.198Z,75.00
2022-09-24T22:45:03.538Z,74.95
2022-09-24T22:47:04.828Z,74.61
2022-09-24T22:49:06.119Z,74.77
2022-09-24T22:51:07.423Z,75.07
2022-09-24T22:53:09.868Z,75.34
2022-09-24T22:55:11.148Z,75.29
2022-09-24T22:57:12.423Z,75.03
2022-09-24T22:59:13.723Z,75.30
2022-09-24T23:01:15.256Z,75.14
2022-09-24T23:03:16.687Z,75.37
2022-09-24T23:05:18.129Z,75.25
2022-09-24T23:07:19.480Z,74.98
2022-09-24T23:09:20.862Z,75.08
2022-09-24T23:11:22.175Z,75.43
2022-09-24T23:13:24.652Z,75.35
2022-09-24T23:15:26.721Z,75.64
2022-09-24T23:17:28.081Z,75.69
2022-09-24T23:19:48.543Z,75.49
2022-09-24T23:21:49.841Z,75.75
2022-09-24T23:23:51.152Z,75.71
2022-09-24T23:25:53.003Z,75.87
2022-09-24T23:27:54.295Z,75.47
2022-09-24T23:29:56.660Z,75.68
2022-09-24T23:31:57.939Z,75.47
2022-09-24T23:33:59.215Z,75.63
2022-09-24T23:36:00.533Z,75.90
2022-09-24T23:38:01.814Z,75.65
2022-09-24T23:40:03.100Z,75.84
2022-09-24T23:42:04.640Z,75.90
2022-09-24T23:44:05.985Z,75.64
2022-09-24T23:46:07.415Z,75.77
2022-09-24T23:48:08.807Z,75.61
2022-09-24T23:50:10.067Z,75.93
2022-09-24T23:52:11.343Z,75.67
2022-09-24T23:54:12.701Z,75.63
2022-09-24T23:56:14.058Z,75.63
2022-09-24T23:58:15.323Z,75.90
